Station Historical Data
Daily Summary for October 8, 2017 Units:  English    Metric   Both
« Previous Day
Next Day »
Daily Weekly Monthly Yearly Custom
  High: Low: Average:
Temperature: 76.9 °F 61.8 °F 68.3 °F
Dew Point: 64.6 °F 57.8 °F 60 °F
Humidity: 88% 61% 75%
Wind Speed: 19.0mph 0.0mph 5.8mph
Wind Gust: 30.0mph - -
Wind- - SW
Pressure: 29.91 in 29.61 in -
Precipitation: 0.00 in    
Historical Graphs
 
 
Tabular Data for October 8, 2017
Time Temperature Dew Point Pressure Wind Wind Speed Wind Gust Humidity Rainfall Rate (Hourly)
00:04 75.0 °F 61.5 °F 29.67 in South 3.0 mph 16.0 mph 63% 0.00 in
00:09 75.1 °F 61.6 °F 29.67 in South 6.0 mph 16.0 mph 63% 0.00 in
00:14 75.2 °F 61.7 °F 29.67 in South 6.0 mph 13.0 mph 63% 0.00 in
00:19 75.3 °F 61.8 °F 29.66 in SW 8.0 mph 11.0 mph 63% 0.00 in
00:24 75.4 °F 61.9 °F 29.66 in SW 9.0 mph 19.0 mph 63% 0.00 in
00:29 75.5 °F 62.0 °F 29.66 in ESE 3.0 mph 19.0 mph 63% 0.00 in
00:34 75.5 °F 61.6 °F 29.65 in SW 8.0 mph 17.0 mph 62% 0.00 in
00:39 75.7 °F 61.8 °F 29.65 in South 6.0 mph 17.0 mph 62% 0.00 in
00:44 75.7 °F 61.8 °F 29.65 in South 7.0 mph 16.0 mph 62% 0.00 in
00:49 75.8 °F 61.8 °F 29.65 in South 7.0 mph 15.0 mph 62% 0.00 in
00:54 75.9 °F 61.9 °F 29.65 in South 7.0 mph 15.0 mph 62% 0.00 in
00:59 75.8 °F 61.8 °F 29.65 in South 6.0 mph 12.0 mph 62% 0.00 in
01:05 75.8 °F 61.8 °F 29.64 in South 5.0 mph 20.0 mph 62% 0.00 in
01:10 75.9 °F 61.9 °F 29.64 in SSW 4.0 mph 16.0 mph 62% 0.00 in
01:15 75.9 °F 61.9 °F 29.64 in South 4.0 mph 16.0 mph 62% 0.00 in
01:20 75.9 °F 61.9 °F 29.64 in SSW 9.0 mph 12.0 mph 62% 0.00 in
01:25 76.0 °F 62.0 °F 29.64 in SSW 7.0 mph 13.0 mph 62% 0.00 in
01:30 76.1 °F 61.7 °F 29.64 in South 7.0 mph 17.0 mph 61% 0.00 in
01:35 76.1 °F 61.7 °F 29.64 in SSW 7.0 mph 17.0 mph 61% 0.00 in
01:40 76.2 °F 61.8 °F 29.64 in SSW 7.0 mph 17.0 mph 61% 0.00 in
01:45 76.3 °F 61.9 °F 29.64 in SSW 6.0 mph 18.0 mph 61% 0.00 in
01:50 76.2 °F 61.8 °F 29.64 in SSW 6.0 mph 18.0 mph 61% 0.00 in
01:55 76.5 °F 62.0 °F 29.64 in SSW 7.0 mph 20.0 mph 61% 0.00 in
02:00 76.6 °F 62.1 °F 29.63 in SSW 8.0 mph 20.0 mph 61% 0.00 in
02:05 76.7 °F 62.2 °F 29.63 in SSW 8.0 mph 20.0 mph 61% 0.00 in
02:10 76.9 °F 62.4 °F 29.63 in South 8.0 mph 20.0 mph 61% 0.00 in
02:15 76.8 °F 62.3 °F 29.63 in WSW 2.0 mph 14.0 mph 61% 0.00 in
02:20 76.7 °F 62.2 °F 29.63 in South 5.0 mph 13.0 mph 61% 0.00 in
02:25 76.8 °F 62.3 °F 29.63 in SSW 3.0 mph 15.0 mph 61% 0.00 in
02:30 76.9 °F 62.4 °F 29.63 in SW 2.0 mph 14.0 mph 61% 0.00 in
02:35 76.9 °F 62.9 °F 29.64 in SSW 7.0 mph 21.0 mph 62% 0.00 in
02:40 76.2 °F 64.4 °F 29.63 in SSW 9.0 mph 25.0 mph 67% 0.00 in
02:45 74.9 °F 64.5 °F 29.64 in SSE 10.0 mph 18.0 mph 70% 0.00 in
02:50 74.0 °F 64.4 °F 29.63 in SW 9.0 mph 20.0 mph 72% 0.01 in
02:55 73.5 °F 64.3 °F 29.64 in SSW 8.0 mph 18.0 mph 73% 0.01 in
03:00 73.1 °F 63.9 °F 29.63 in SSW 7.0 mph 20.0 mph 73% 0.01 in
03:10 72.1 °F 63.7 °F 29.63 in SSW 9.0 mph 22.0 mph 75% 0.03 in
03:15 71.5 °F 63.9 °F 29.62 in SSW 8.0 mph 22.0 mph 77% 0.04 in
03:20 70.9 °F 64.1 °F 29.62 in SSW 7.0 mph 18.0 mph 79% 0.04 in
03:25 70.6 °F 64.1 °F 29.61 in South 7.0 mph 18.0 mph 80% 0.04 in
03:30 70.5 °F 64.0 °F 29.62 in South 8.0 mph 16.0 mph 80% 0.04 in
03:35 70.6 °F 64.1 °F 29.62 in SSW 5.0 mph 15.0 mph 80% 0.04 in
03:40 70.6 °F 64.1 °F 29.62 in South 5.0 mph 19.0 mph 80% 0.04 in
03:45 70.6 °F 64.1 °F 29.62 in SSE 5.0 mph 20.0 mph 80% 0.04 in
03:50 70.8 °F 64.3 °F 29.62 in SSW 12.0 mph 18.0 mph 80% 0.03 in
03:55 70.9 °F 64.1 °F 29.62 in South 13.0 mph 21.0 mph 79% 0.03 in
04:00 71.2 °F 64.4 °F 29.62 in WSW 12.0 mph 16.0 mph 79% 0.04 in
04:05 71.1 °F 64.6 °F 29.62 in South 2.0 mph 21.0 mph 80% 0.03 in
04:15 71.1 °F 64.3 °F 29.62 in SSW 8.0 mph 26.0 mph 79% 0.01 in
04:20 71.3 °F 64.4 °F 29.62 in SSW 7.0 mph 19.0 mph 79% 0.01 in
04:25 71.5 °F 64.3 °F 29.62 in SSW 9.0 mph 27.0 mph 78% 0.01 in
04:30 71.6 °F 64.4 °F 29.61 in SSW 9.0 mph 20.0 mph 78% 0.01 in
04:35 71.7 °F 64.5 °F 29.62 in SSW 8.0 mph 20.0 mph 78% 0.01 in
04:40 71.6 °F 64.4 °F 29.62 in SSW 9.0 mph 20.0 mph 78% 0.01 in
04:45 71.6 °F 64.4 °F 29.62 in SSW 8.0 mph 17.0 mph 78% 0.01 in
04:50 71.6 °F 64.4 °F 29.61 in SSW 9.0 mph 21.0 mph 78% 0.01 in
04:55 71.7 °F 64.1 °F 29.62 in WSW 12.0 mph 18.0 mph 77% 0.01 in
05:00 71.7 °F 64.5 °F 29.62 in SW 4.0 mph 22.0 mph 78% 0.00 in
05:05 71.7 °F 64.5 °F 29.62 in WSW 7.0 mph 18.0 mph 78% 0.00 in
05:10 71.7 °F 64.5 °F 29.62 in SSW 8.0 mph 20.0 mph 78% 0.00 in
05:15 71.7 °F 64.5 °F 29.63 in SSW 9.0 mph 20.0 mph 78% 0.00 in
05:20 71.7 °F 64.5 °F 29.63 in South 9.0 mph 18.0 mph 78% 0.00 in
05:25 71.6 °F 64.4 °F 29.66 in West 7.0 mph 23.0 mph 78% 0.00 in
05:30 70.9 °F 63.7 °F 29.66 in WSW 19.0 mph 27.0 mph 78% 0.01 in
05:35 69.8 °F 62.6 °F 29.67 in WSW 10.0 mph 25.0 mph 78% 0.01 in
05:39 69.0 °F 61.5 °F 29.67 in WSW 13.0 mph 30.0 mph 77% 0.01 in
05:45 68.5 °F 61.0 °F 29.67 in WSW 12.0 mph 30.0 mph 77% 0.01 in
05:50 68.2 °F 60.3 °F 29.68 in WSW 12.0 mph 28.0 mph 76% 0.01 in
05:55 68.1 °F 60.6 °F 29.68 in WSW 12.0 mph 29.0 mph 77% 0.01 in
06:00 67.9 °F 60.4 °F 29.69 in WSW 12.0 mph 29.0 mph 77% 0.01 in
06:05 67.8 °F 60.3 °F 29.69 in WSW 11.0 mph 23.0 mph 77% 0.01 in
06:10 67.7 °F 60.6 °F 29.70 in WSW 11.0 mph 22.0 mph 78% 0.01 in
06:15 67.7 °F 60.6 °F 29.70 in West 9.0 mph 23.0 mph 78% 0.01 in
06:19 67.7 °F 60.6 °F 29.70 in WNW 11.0 mph 20.0 mph 78% 0.01 in
06:25 67.6 °F 60.5 °F 29.70 in WSW 7.0 mph 21.0 mph 78% 0.01 in
06:30 67.5 °F 60.4 °F 29.71 in WSW 10.0 mph 19.0 mph 78% 0.00 in
06:35 67.6 °F 60.5 °F 29.71 in West 6.0 mph 20.0 mph 78% 0.00 in
06:40 67.5 °F 60.4 °F 29.71 in WSW 10.0 mph 27.0 mph 78% 0.00 in
06:44 67.4 °F 60.3 °F 29.72 in WSW 10.0 mph 27.0 mph 78% 0.00 in
06:50 67.4 °F 60.3 °F 29.72 in WSW 8.0 mph 19.0 mph 78% 0.00 in
06:55 67.4 °F 59.9 °F 29.73 in WNW 16.0 mph 19.0 mph 77% 0.00 in
07:00 67.3 °F 59.8 °F 29.73 in WSW 10.0 mph 21.0 mph 77% 0.00 in
07:05 67.2 °F 59.4 °F 29.73 in WSW 5.0 mph 18.0 mph 76% 0.00 in
07:09 67.1 °F 59.6 °F 29.73 in West 8.0 mph 18.0 mph 77% 0.00 in
07:14 67.0 °F 60.3 °F 29.73 in WSW 8.0 mph 17.0 mph 79% 0.00 in
07:20 66.9 °F 60.2 °F 29.74 in WSW 10.0 mph 23.0 mph 79% 0.00 in
07:25 66.7 °F 59.6 °F 29.74 in WSW 11.0 mph 28.0 mph 78% 0.00 in
07:30 66.7 °F 59.6 °F 29.74 in WSW 10.0 mph 28.0 mph 78% 0.00 in
07:35 66.7 °F 59.6 °F 29.75 in WSW 11.0 mph 20.0 mph 78% 0.00 in
07:39 66.7 °F 59.3 °F 29.75 in WSW 6.0 mph 21.0 mph 77% 0.00 in
07:45 66.7 °F 59.3 °F 29.75 in WSW 9.0 mph 20.0 mph 77% 0.00 in
07:50 66.8 °F 59.4 °F 29.76 in SSW 11.0 mph 18.0 mph 77% 0.00 in
07:55 66.8 °F 59.4 °F 29.76 in SW 9.0 mph 18.0 mph 77% 0.00 in
07:59 66.8 °F 59.4 °F 29.76 in WSW 7.0 mph 11.0 mph 77% 0.00 in
08:05 66.7 °F 59.6 °F 29.75 in WSW 9.0 mph 11.0 mph 78% 0.00 in
08:10 66.8 °F 60.1 °F 29.76 in West 11.0 mph 17.0 mph 79% 0.00 in
08:15 66.9 °F 60.2 °F 29.76 in WSW 9.0 mph 18.0 mph 79% 0.00 in
08:20 67.0 °F 59.9 °F 29.76 in WSW 10.0 mph 19.0 mph 78% 0.00 in
08:25 67.2 °F 59.7 °F 29.76 in WSW 9.0 mph 19.0 mph 77% 0.00 in
08:30 67.4 °F 59.9 °F 29.76 in WSW 9.0 mph 19.0 mph 77% 0.00 in
08:35 67.6 °F 60.1 °F 29.77 in WSW 10.0 mph 22.0 mph 77% 0.00 in
08:40 67.4 °F 59.9 °F 29.77 in WSW 10.0 mph 19.0 mph 77% 0.00 in
08:44 67.4 °F 59.9 °F 29.76 in WSW 10.0 mph 23.0 mph 77% 0.00 in
08:49 67.3 °F 59.5 °F 29.77 in WNW 14.0 mph 22.0 mph 76% 0.00 in
08:54 67.3 °F 59.5 °F 29.77 in WSW 9.0 mph 21.0 mph 76% 0.00 in
08:59 67.4 °F 59.6 °F 29.78 in West 5.0 mph 15.0 mph 76% 0.00 in
09:04 67.5 °F 59.3 °F 29.78 in WSW 11.0 mph 16.0 mph 75% 0.00 in
09:09 67.5 °F 58.9 °F 29.79 in SW 7.0 mph 15.0 mph 74% 0.00 in
09:14 67.5 °F 58.9 °F 29.79 in WSW 8.0 mph 22.0 mph 74% 0.00 in
09:19 67.7 °F 59.5 °F 29.79 in WSW 10.0 mph 22.0 mph 75% 0.00 in
09:25 67.7 °F 59.5 °F 29.80 in WSW 10.0 mph 22.0 mph 75% 0.00 in
09:30 67.6 °F 59.0 °F 29.80 in WSW 9.0 mph 20.0 mph 74% 0.00 in
09:40 67.6 °F 59.4 °F 29.81 in West 12.0 mph 20.0 mph 75% 0.00 in
09:45 67.5 °F 59.3 °F 29.81 in West 8.0 mph 20.0 mph 75% 0.00 in
09:49 67.4 °F 59.2 °F 29.81 in West 9.0 mph 15.0 mph 75% 0.00 in
09:55 67.5 °F 59.3 °F 29.81 in West 7.0 mph 15.0 mph 75% 0.00 in
10:00 67.9 °F 59.3 °F 29.81 in West 7.0 mph 16.0 mph 74% 0.00 in
10:05 68.4 °F 59.0 °F 29.82 in West 8.0 mph 19.0 mph 72% 0.00 in
10:10 68.4 °F 59.0 °F 29.82 in West 8.0 mph 19.0 mph 72% 0.00 in
10:14 68.2 °F 59.2 °F 29.82 in WSW 5.0 mph 12.0 mph 73% 0.00 in
10:19 68.0 °F 58.6 °F 29.82 in WNW 2.0 mph 9.0 mph 72% 0.00 in
10:24 67.6 °F 58.6 °F 29.83 in WSW 5.0 mph 14.0 mph 73% 0.00 in
10:30 67.4 °F 58.8 °F 29.83 in WSW 4.0 mph 16.0 mph 74% 0.00 in
10:34 67.4 °F 58.8 °F 29.83 in West 5.0 mph 14.0 mph 74% 0.00 in
10:40 67.7 °F 59.1 °F 29.84 in WNW 5.0 mph 15.0 mph 74% 0.00 in
10:44 68.0 °F 59.4 °F 29.84 in WSW 6.0 mph 15.0 mph 74% 0.00 in
10:49 68.2 °F 59.6 °F 29.84 in WSW 6.0 mph 15.0 mph 74% 0.00 in
10:55 68.2 °F 59.2 °F 29.84 in West 6.0 mph 13.0 mph 73% 0.00 in
11:00 68.2 °F 58.8 °F 29.84 in WSW 8.0 mph 15.0 mph 72% 0.00 in
11:05 68.1 °F 59.1 °F 29.84 in WSW 8.0 mph 15.0 mph 73% 0.00 in
11:10 68.1 °F 58.7 °F 29.85 in WSW 7.0 mph 14.0 mph 72% 0.00 in
11:15 68.2 °F 58.8 °F 29.85 in WSW 7.0 mph 16.0 mph 72% 0.00 in
11:19 68.5 °F 58.7 °F 29.85 in WSW 8.0 mph 14.0 mph 71% 0.00 in
11:29 68.5 °F 58.3 °F 29.86 in West 6.0 mph 18.0 mph 70% 0.00 in
11:34 68.9 °F 59.1 °F 29.86 in WSW 15.0 mph 20.0 mph 71% 0.01 in
11:40 68.7 °F 58.9 °F 29.86 in West 6.0 mph 15.0 mph 71% 0.01 in
11:44 68.9 °F 59.5 °F 29.86 in WSW 8.0 mph 15.0 mph 72% 0.01 in
11:49 68.6 °F 59.2 °F 29.86 in WSW 7.0 mph 18.0 mph 72% 0.01 in
11:55 68.4 °F 59.0 °F 29.86 in WSW 7.0 mph 18.0 mph 72% 0.01 in
12:00 68.2 °F 59.2 °F 29.86 in WSW 8.0 mph 19.0 mph 73% 0.01 in
12:05 68.7 °F 59.3 °F 29.86 in WSW 8.0 mph 19.0 mph 72% 0.01 in
12:10 69.2 °F 59.8 °F 29.87 in WSW 8.0 mph 16.0 mph 72% 0.01 in
12:14 69.3 °F 59.5 °F 29.87 in WSW 8.0 mph 16.0 mph 71% 0.01 in
12:19 69.1 °F 58.5 °F 29.87 in SW 18.0 mph 18.0 mph 69% 0.01 in
12:29 68.8 °F 59.4 °F 29.88 in SW 7.0 mph 14.0 mph 72% 0.01 in
12:35 70.7 °F 60.8 °F 29.88 in SW 5.0 mph 15.0 mph 71% 0.00 in
12:39 70.7 °F 58.8 °F 29.88 in WSW 10.0 mph 16.0 mph 66% 0.00 in
12:44 69.3 °F 58.7 °F 29.89 in WSW 8.0 mph 18.0 mph 69% 0.00 in
12:49 68.4 °F 58.2 °F 29.89 in WSW 8.0 mph 18.0 mph 70% 0.00 in
12:54 68.2 °F 58.4 °F 29.89 in WSW 7.0 mph 17.0 mph 71% 0.00 in
12:59 68.2 °F 58.4 °F 29.89 in West 6.0 mph 16.0 mph 71% 0.00 in
13:05 68.6 °F 58.8 °F 29.89 in SSW 5.0 mph 12.0 mph 71% 0.00 in
13:10 68.7 °F 58.5 °F 29.89 in SW 9.0 mph 16.0 mph 70% 0.00 in
13:15 68.6 °F 58.0 °F 29.89 in WSW 4.0 mph 17.0 mph 69% 0.00 in
13:19 68.6 °F 58.4 °F 29.89 in WSW 6.0 mph 17.0 mph 70% 0.00 in
13:24 68.5 °F 58.3 °F 29.89 in WSW 5.0 mph 14.0 mph 70% 0.00 in
13:29 68.6 °F 58.0 °F 29.89 in WSW 6.0 mph 14.0 mph 69% 0.00 in
13:35 68.6 °F 58.0 °F 29.89 in WSW 6.0 mph 13.0 mph 69% 0.00 in
13:39 68.8 °F 58.6 °F 29.89 in West 6.0 mph 12.0 mph 70% 0.00 in
13:44 69.3 °F 58.7 °F 29.89 in WSW 7.0 mph 16.0 mph 69% 0.00 in
13:49 69.3 °F 59.1 °F 29.89 in SW 4.0 mph 12.0 mph 70% 0.00 in
13:54 69.5 °F 59.3 °F 29.89 in WSW 4.0 mph 13.0 mph 70% 0.00 in
14:05 70.6 °F 60.3 °F 29.89 in SW 5.0 mph 10.0 mph 70% 0.00 in
14:10 69.8 °F 59.2 °F 29.89 in WNW 6.0 mph 16.0 mph 69% 0.00 in
14:14 69.3 °F 59.1 °F 29.89 in WSW 7.0 mph 16.0 mph 70% 0.00 in
14:19 69.5 °F 59.7 °F 29.89 in WSW 6.0 mph 13.0 mph 71% 0.00 in
14:25 69.3 °F 59.1 °F 29.90 in WSW 6.0 mph 17.0 mph 70% 0.00 in
14:30 69.3 °F 59.1 °F 29.89 in West 7.0 mph 17.0 mph 70% 0.00 in
14:34 69.5 °F 59.3 °F 29.89 in WSW 7.0 mph 15.0 mph 70% 0.00 in
14:40 69.7 °F 59.5 °F 29.90 in WSW 7.0 mph 14.0 mph 70% 0.00 in
14:49 69.1 °F 58.9 °F 29.89 in WSW 8.0 mph 15.0 mph 70% 0.00 in
14:54 69.8 °F 59.6 °F 29.89 in West 10.0 mph 10.0 mph 70% 0.00 in
14:59 71.0 °F 59.9 °F 29.89 in WSW 5.0 mph 11.0 mph 68% 0.00 in
15:04 70.7 °F 59.2 °F 29.89 in SW 2.0 mph 13.0 mph 67% 0.00 in
15:14 70.5 °F 59.4 °F 29.89 in WSW 7.0 mph 12.0 mph 68% 0.00 in
15:19 70.1 °F 59.5 °F 29.89 in SW 7.0 mph 13.0 mph 69% 0.00 in
15:24 69.9 °F 59.7 °F 29.89 in SW 6.0 mph 13.0 mph 70% 0.00 in
15:29 70.7 °F 59.6 °F 29.90 in SW 6.0 mph 11.0 mph 68% 0.00 in
15:34 70.6 °F 59.1 °F 29.90 in WSW 6.0 mph 12.0 mph 67% 0.00 in
15:40 70.3 °F 58.8 °F 29.90 in WSW 5.0 mph 14.0 mph 67% 0.00 in
15:45 69.4 °F 58.4 °F 29.89 in WSW 8.0 mph 13.0 mph 68% 0.00 in
15:49 69.1 °F 58.5 °F 29.89 in SW 7.0 mph 15.0 mph 69% 0.00 in
15:54 68.7 °F 58.1 °F 29.90 in SW 10.0 mph 12.0 mph 69% 0.00 in
16:04 69.3 °F 59.9 °F 29.89 in SSW 7.0 mph 12.0 mph 72% 0.00 in
16:09 69.0 °F 58.8 °F 29.90 in West 4.0 mph 11.0 mph 70% 0.00 in
16:14 68.6 °F 58.8 °F 29.89 in WSW 10.0 mph 10.0 mph 71% 0.00 in
16:19 68.1 °F 58.7 °F 29.89 in SW 5.0 mph 12.0 mph 72% 0.00 in
16:24 68.2 °F 58.8 °F 29.89 in SW 5.0 mph 12.0 mph 72% 0.00 in
16:29 68.1 °F 58.7 °F 29.89 in SW 5.0 mph 11.0 mph 72% 0.00 in
16:34 68.1 °F 58.7 °F 29.89 in SW 5.0 mph 11.0 mph 72% 0.00 in
16:39 67.8 °F 58.4 °F 29.89 in WSW 9.0 mph 9.0 mph 72% 0.00 in
16:44 67.9 °F 58.5 °F 29.89 in SW 5.0 mph 11.0 mph 72% 0.00 in
16:50 67.8 °F 59.2 °F 29.89 in SSW 7.0 mph 11.0 mph 74% 0.00 in
16:59 67.7 °F 59.5 °F 29.89 in WSW 6.0 mph 12.0 mph 75% 0.00 in
17:04 67.5 °F 59.7 °F 29.89 in SW 6.0 mph 12.0 mph 76% 0.00 in
17:09 67.4 °F 59.6 °F 29.90 in SW 10.0 mph 12.0 mph 76% 0.00 in
17:14 67.3 °F 59.5 °F 29.89 in SSW 3.0 mph 10.0 mph 76% 0.00 in
17:19 67.3 °F 59.8 °F 29.90 in WSW 6.0 mph 10.0 mph 77% 0.00 in
17:29 67.1 °F 59.3 °F 29.90 in SW 6.0 mph 11.0 mph 76% 0.00 in
17:34 67.0 °F 59.5 °F 29.90 in SW 6.0 mph 12.0 mph 77% 0.00 in
17:39 67.0 °F 59.5 °F 29.90 in SW 6.0 mph 12.0 mph 77% 0.00 in
17:45 66.8 °F 59.7 °F 29.90 in WSW 5.0 mph 13.0 mph 78% 0.00 in
17:50 66.7 °F 60.0 °F 29.90 in SW 1.0 mph 7.0 mph 79% 0.00 in
17:54 66.7 °F 60.0 °F 29.90 in SW 3.0 mph 8.0 mph 79% 0.00 in
17:59 66.5 °F 59.4 °F 29.90 in WSW 4.0 mph 9.0 mph 78% 0.00 in
18:04 66.5 °F 59.4 °F 29.90 in WSW 4.0 mph 9.0 mph 78% 0.00 in
18:09 66.4 °F 59.3 °F 29.90 in SW 6.0 mph 9.0 mph 78% 0.00 in
18:14 66.3 °F 59.2 °F 29.90 in SW 3.0 mph 8.0 mph 78% 0.00 in
18:19 66.2 °F 59.5 °F 29.90 in WSW 4.0 mph 6.0 mph 79% 0.00 in
18:24 65.9 °F 59.2 °F 29.89 in WSW 2.0 mph 6.0 mph 79% 0.00 in
18:29 65.8 °F 58.7 °F 29.89 in WSW 2.0 mph 7.0 mph 78% 0.00 in
18:34 65.7 °F 58.7 °F 29.89 in WSW 2.0 mph 7.0 mph 78% 0.00 in
18:39 65.6 °F 58.2 °F 29.89 in Calm   5.0 mph 77% 0.00 in
18:44 65.5 °F 58.5 °F 29.90 in SSW 1.0 mph 5.0 mph 78% 0.00 in
18:49 65.4 °F 58.4 °F 29.90 in Calm   3.0 mph 78% 0.00 in
18:54 65.2 °F 58.5 °F 29.90 in Calm     79% 0.00 in
18:59 64.9 °F 58.6 °F 29.90 in Calm   3.0 mph 80% 0.00 in
19:09 64.8 °F 58.8 °F 29.90 in SW 1.0 mph 3.0 mph 81% 0.00 in
19:14 64.8 °F 59.2 °F 29.90 in Calm   2.0 mph 82% 0.00 in
19:19 64.7 °F 59.1 °F 29.90 in Calm     82% 0.00 in
19:24 64.5 °F 58.9 °F 29.90 in Calm     82% 0.00 in
19:29 64.3 °F 58.7 °F 29.90 in Calm     82% 0.00 in
19:34 64.2 °F 58.9 °F 29.89 in Calm     83% 0.00 in
19:39 64.1 °F 58.8 °F 29.89 in Calm     83% 0.00 in
19:44 63.8 °F 58.5 °F 29.89 in Calm     83% 0.00 in
19:49 63.6 °F 58.7 °F 29.89 in Calm     84% 0.00 in
19:54 63.4 °F 58.5 °F 29.89 in Calm     84% 0.00 in
19:59 63.3 °F 58.7 °F 29.90 in Calm     85% 0.00 in
20:04 63.4 °F 58.8 °F 29.89 in Calm     85% 0.00 in
20:09 63.4 °F 58.8 °F 29.89 in Calm     85% 0.00 in
20:14 63.3 °F 58.7 °F 29.90 in Calm     85% 0.00 in
20:19 63.2 °F 58.6 °F 29.90 in Calm     85% 0.00 in
20:24 63.0 °F 58.4 °F 29.90 in Calm     85% 0.00 in
20:29 62.8 °F 58.2 °F 29.90 in Calm     85% 0.00 in
20:34 62.7 °F 58.5 °F 29.90 in Calm     86% 0.00 in
20:39 62.5 °F 58.3 °F 29.90 in Calm     86% 0.00 in
20:44 62.3 °F 58.1 °F 29.91 in Calm     86% 0.00 in
20:54 62.1 °F 58.2 °F 29.91 in Calm     87% 0.00 in
20:59 62.0 °F 58.1 °F 29.91 in Calm     87% 0.00 in
21:04 62.0 °F 58.1 °F 29.91 in Calm     87% 0.00 in
21:14 62.0 °F 58.4 °F 29.91 in Calm     88% 0.00 in
21:19 61.9 °F 58.3 °F 29.91 in Calm     88% 0.00 in
21:24 61.8 °F 58.2 °F 29.91 in Calm     88% 0.00 in
21:29 61.8 °F 57.9 °F 29.91 in Calm     87% 0.00 in
21:34 61.8 °F 58.2 °F 29.91 in Calm     88% 0.00 in
21:39 62.0 °F 58.4 °F 29.90 in Calm     88% 0.00 in
21:44 62.0 °F 58.4 °F 29.90 in Calm     88% 0.00 in
21:49 62.0 °F 58.1 °F 29.90 in Calm     87% 0.00 in
21:54 61.9 °F 58.0 °F 29.90 in Calm     87% 0.00 in
21:59 61.9 °F 58.3 °F 29.90 in Calm     88% 0.00 in
22:04 61.8 °F 57.9 °F 29.90 in Calm     87% 0.00 in
22:09 61.8 °F 57.9 °F 29.90 in Calm     87% 0.00 in
22:14 61.9 °F 58.3 °F 29.90 in Calm     88% 0.00 in
22:19 62.0 °F 58.1 °F 29.90 in Calm     87% 0.00 in
22:24 62.1 °F 58.2 °F 29.90 in Calm     87% 0.00 in
22:29 62.2 °F 58.3 °F 29.90 in Calm     87% 0.00 in
22:34 62.2 °F 58.0 °F 29.90 in Calm     86% 0.00 in
22:39 62.3 °F 58.1 °F 29.90 in Calm     86% 0.00 in
22:44 62.4 °F 58.2 °F 29.90 in Calm     86% 0.00 in
22:49 62.4 °F 58.2 °F 29.90 in Calm     86% 0.00 in
22:54 62.4 °F 58.2 °F 29.90 in Calm     86% 0.00 in
22:59 62.5 °F 57.9 °F 29.89 in Calm     85% 0.00 in
23:04 62.6 °F 58.0 °F 29.89 in Calm     85% 0.00 in
23:09 62.6 °F 58.0 °F 29.89 in Calm     85% 0.00 in
23:19 62.8 °F 57.9 °F 29.89 in Calm     84% 0.00 in
23:25 62.9 °F 58.0 °F 29.89 in Calm     84% 0.00 in
23:29 62.9 °F 58.0 °F 29.89 in Calm     84% 0.00 in
23:34 62.9 °F 58.0 °F 29.89 in Calm     84% 0.00 in
23:39 63.0 °F 57.8 °F 29.89 in Calm     83% 0.00 in
23:44 63.0 °F 57.8 °F 29.89 in Calm     83% 0.00 in
23:49 63.1 °F 57.9 °F 29.89 in Calm     83% 0.00 in
23:54 63.2 °F 57.9 °F 29.89 in Calm     83% 0.00 in
23:59 63.1 °F 57.9 °F 29.89 in Calm     83% 0.00 in
Buffalo, New York, USA
Compliments of Weather Underground - 2.25 mb